This is the latest recevied weather packets stored in our database for station/object AA3CS-1. If no packets are shown the sender has not sent any weather packets the latest 10 day(s).
| Time | Temp. | Humidity | Pressure | Rain* | Wind** | Luminosity | Snow |
|---|---|---|---|---|---|---|---|
| 1777381857 | 12.78° C | 86% | 1012.3 hPa | 0 mm | - | 120 W/m² | - |
| 1777378817 | 12.78° C | 86% | 1012.1 hPa | 0 mm | - | 44 W/m² | - |
| 1777378516 | 12.78° C | 86% | 1012 hPa | 0 mm | - | 48 W/m² | - |
| 1777377916 | 12.78° C | 85% | 1012.2 hPa | 0 mm | - | 47 W/m² | - |
| 1777375516 | 12.22° C | 87% | 1012.1 hPa | 0 mm | - | 19 W/m² | - |
| 1777374916 | 12.22° C | 88% | 1012 hPa | 0 mm | - | 15 W/m² | - |
| 1777373736 | 12.22° C | 88% | 1011.6 hPa | 0 mm | - | 0 W/m² | - |
| 1777373416 | 12.22° C | 88% | 1011.4 hPa | 0 mm | - | 0 W/m² | - |
| 1777373116 | 12.22° C | 88% | 1011.2 hPa | 0 mm | - | 0 W/m² | - |
| 1777372516 | 12.22° C | 88% | 1011.2 hPa | 0 mm | - | 0 W/m² | - |
| 1777370136 | 12.78° C | 88% | 1009.8 hPa | 0 mm | - | 0 W/m² | - |
| 1777369236 | 12.78° C | 88% | 1009.2 hPa | 0 mm | - | 0 W/m² | - |
| 1777368316 | 12.78° C | 88% | 1009.3 hPa | 0 mm | - | 0 W/m² | - |
| 1777365316 | 12.78° C | 90% | 1008.8 hPa | 0.76 mm | - | 0 W/m² | - |
| 1777361416 | 13.89° C | 88% | 1013 hPa | 4.06 mm | - | 0 W/m² | - |
| 1777354216 | 18.33° C | 49% | 1011.4 hPa | 0 mm | - | 0 W/m² | - |
| 1777353016 | 18.33° C | 47% | 1010.7 hPa | 0 mm | - | 0 W/m² | - |
| 1777352716 | 18.33° C | 47% | 1010 hPa | 0 mm | - | 0 W/m² | - |
| 1777352416 | 18.33° C | 47% | 1009.1 hPa | 0 mm | - | 0 W/m² | - |
| 1777350916 | 18.33° C | 48% | 1010.6 hPa | 0 mm | - | 0 W/m² | - |
| 1777349416 | 18.89° C | 47% | 1011 hPa | 0 mm | - | 0 W/m² | - |
| 1777347916 | 18.33° C | 47% | 1011.3 hPa | 0 mm | - | 0 W/m² | - |
| 1777347036 | 18.33° C | 47% | 1011.3 hPa | 0 mm | - | 0 W/m² | - |
| 1777344616 | 18.33° C | 47% | 1012.3 hPa | 0 mm | - | 0 W/m² | - |
| 1777344016 | 18.33° C | 47% | 1012.6 hPa | 0 mm | - | 0 W/m² | - |
* Rain latest hour (hover to see other rain measurements)
** Current wind speed in m/s (hover to see current wind gust speed)